Terminal Aerodrome Forecast
Issued by NWS Mt. Holly, NJ

Home | Current Version | Previous Version | Text Only | Print | Product List | Glossary On
Versions: 1 2 3 4 5 6 7 8 9 10 11 12 13 14 15 16 17 18 19
000
FTUS41 KPHI 231258 AAA
TAFILG
TAF AMD
KILG 231258Z 2313/2412 22005KT P6SM BKN100
      TEMPO 2313/2315 5SM -SHRA BKN015
     FM231800 23014G21KT P6SM SCT025 OVC050
      TEMPO 2321/2401 3SM TSRA BKN025CB
     FM240100 24012KT P6SM SCT040 OVC120
     FM240900 22009KT 4SM SHRA OVC040=

USA.gov is the U.S. government's official web portal to all federal, state and local government web resources and services.